FLTA4: Red River, Fulton, AR

Data processed at Thu May 23 2019 23:50


All information presented herein is the property of the government of the United States of America and may be revised or deleted at any time without prior notice.
Dissemination of this information without the expressed written consent of the Public Affairs Office, Tulsa District U.S. Army Corps of Engineers is strictly prohibited.
These data are gathered electronically and, as presented, have not undergone any form of quality control. These data are not guaranteed to be valid or correct.
Go to home page.
Go to station list.
Go to home page.

Upstream stations:

Downstream station:
Previous Day
Next Day
Current Day
    
SHEF ID:       FLTA4     Red River nr Fulton
STATION TYPE:  
Regulating: Stage =    25.00, Flow =   134144

               PRECIP     STAGE  RIV-FLOW   VOLTAGE
                   in        ft       cfs      volt
              Ccp-Rev   Ccp-Rev   Ccp-Rev   Ccp-Rev
(US/Central)
05/23 00:00      0.00     16.88     76790     12.50
05/23 01:00      0.00     16.89     76853     12.50
05/23 02:00      0.00     16.91     76980     12.40
05/23 03:00      0.00     16.90     76916     12.40
05/23 04:00      0.00     16.93     77107     12.40
05/23 05:00      0.00     16.92     77043     12.40
05/23 06:00      0.00     16.94     77171     12.40
05/23 07:00      0.00     16.96     77298     12.40
05/23 08:00      0.00     16.95     77234     12.80
05/23 09:00      0.00     16.96     77298     13.20
05/23 10:00      0.00     16.98     77425     13.00
05/23 11:00      0.00     16.97     77361     13.00
05/23 12:00      0.00     17.00     77552     12.70
05/23 13:00      0.00     17.01     77614     12.70
05/23 14:00      0.00     17.00     77552     12.70
05/23 15:00      0.00     16.98     77425     12.70
05/23 16:00      0.00     16.97     77361     12.70
05/23 17:00      0.00     16.99     77488     12.70
05/23 18:00      0.00     16.99     77488     12.70
05/23 19:00      0.00     16.99     77488     12.80
05/23 20:00      0.00     16.98     77425     12.80
05/23 21:00      0.00     16.96     77298     12.60
05/23 22:00      0.00     16.96     77298     12.50
05/23 23:00      0.00     16.97     77361     12.50